sensor_id;sensor_type;location;lat;lon;timestamp;pressure;altitude;pressure_sealevel;temperature;humidity
35704;BME280;21820;51.112;13.762;2023-02-13T00:02:24;101524.47;;;22.24;57.74
35704;BME280;21820;51.112;13.762;2023-02-13T00:04:49;101521.09;;;22.22;57.82
35704;BME280;21820;51.112;13.762;2023-02-13T00:07:15;101516.91;;;22.19;57.49
35704;BME280;21820;51.112;13.762;2023-02-13T00:09:40;101524.66;;;22.21;58.44
35704;BME280;21820;51.112;13.762;2023-02-13T00:12:06;101518.56;;;22.20;58.35
35704;BME280;21820;51.112;13.762;2023-02-13T00:14:36;101517.56;;;22.23;58.08
35704;BME280;21820;51.112;13.762;2023-02-13T00:17:02;101518.56;;;22.20;57.44
35704;BME280;21820;51.112;13.762;2023-02-13T00:19:27;101513.34;;;22.20;57.52
35704;BME280;21820;51.112;13.762;2023-02-13T00:21:53;101509.97;;;22.18;57.32
35704;BME280;21820;51.112;13.762;2023-02-13T00:24:18;101513.63;;;22.16;58.49
35704;BME280;21820;51.112;13.762;2023-02-13T00:26:44;101510.81;;;22.19;57.23
35704;BME280;21820;51.112;13.762;2023-02-13T00:29:09;101512.03;;;22.13;58.38
35704;BME280;21820;51.112;13.762;2023-02-13T00:31:34;101507.63;;;22.14;57.69
35704;BME280;21820;51.112;13.762;2023-02-13T00:34:00;101513.09;;;22.11;57.53
35704;BME280;21820;51.112;13.762;2023-02-13T00:36:25;101500.47;;;22.03;57.99
35704;BME280;21820;51.112;13.762;2023-02-13T00:38:50;101503.56;;;22.10;57.15
35704;BME280;21820;51.112;13.762;2023-02-13T00:41:16;101513.09;;;22.11;57.81
35704;BME280;21820;51.112;13.762;2023-02-13T00:43:43;101511.22;;;22.13;57.78
35704;BME280;21820;51.112;13.762;2023-02-13T00:46:09;101513.09;;;22.11;57.20
35704;BME280;21820;51.112;13.762;2023-02-13T00:48:35;101514.75;;;22.12;58.28
35704;BME280;21820;51.112;13.762;2023-02-13T00:51:02;101505.72;;;22.03;58.00
35704;BME280;21820;51.112;13.762;2023-02-13T00:53:27;101510.47;;;22.11;57.83
35704;BME280;21820;51.112;13.762;2023-02-13T00:55:53;101511.69;;;22.05;57.67
35704;BME280;21820;51.112;13.762;2023-02-13T00:58:19;101510.75;;;22.06;56.78
35704;BME280;21820;51.112;13.762;2023-02-13T01:00:45;101513.66;;;22.02;57.99
35704;BME280;21820;51.112;13.762;2023-02-13T01:03:14;101515.53;;;22.00;58.59
35704;BME280;21820;51.112;13.762;2023-02-13T01:05:40;101506.19;;;21.95;56.99
35704;BME280;21820;51.112;13.762;2023-02-13T01:08:06;101503.75;;;21.92;57.53
35704;BME280;21820;51.112;13.762;2023-02-13T01:10:31;101514.50;;;22.02;57.69
35704;BME280;21820;51.112;13.762;2023-02-13T01:12:57;101501.25;;;21.91;58.68
35704;BME280;21820;51.112;13.762;2023-02-13T01:15:22;101516.47;;;21.98;57.73
35704;BME280;21820;51.112;13.762;2023-02-13T01:17:47;101516.25;;;22.02;57.73
35704;BME280;21820;51.112;13.762;2023-02-13T01:20:13;101516.25;;;22.02;57.90
35704;BME280;21820;51.112;13.762;2023-02-13T01:22:39;101512.16;;;21.98;57.61
35704;BME280;21820;51.112;13.762;2023-02-13T01:25:05;101507.69;;;22.00;57.84
35704;BME280;21820;51.112;13.762;2023-02-13T01:27:31;101512.38;;;21.94;57.45
35704;BME280;21820;51.112;13.762;2023-02-13T01:29:57;101513.19;;;21.95;58.44
35704;BME280;21820;51.112;13.762;2023-02-13T01:32:22;101509.91;;;21.91;57.43
35704;BME280;21820;51.112;13.762;2023-02-13T01:34:48;101497.66;;;21.92;58.08
35704;BME280;21820;51.112;13.762;2023-02-13T01:37:13;101503.56;;;21.95;58.36
35704;BME280;21820;51.112;13.762;2023-02-13T01:39:39;101496.81;;;21.91;57.67
35704;BME280;21820;51.112;13.762;2023-02-13T01:42:08;101497.66;;;21.92;58.53
35704;BME280;21820;51.112;13.762;2023-02-13T01:44:49;101482.66;;;21.81;58.78
35704;BME280;21820;51.112;13.762;2023-02-13T01:47:23;101490.75;;;21.91;58.50
35704;BME280;21820;51.112;13.762;2023-02-13T01:49:58;101493.47;;;21.89;59.05
35704;BME280;21820;51.112;13.762;2023-02-13T01:52:27;101495.25;;;21.89;57.54
35704;BME280;21820;51.112;13.762;2023-02-13T01:54:52;101498.53;;;21.92;58.40
35704;BME280;21820;51.112;13.762;2023-02-13T01:57:20;101497.66;;;21.92;58.04
35704;BME280;21820;51.112;13.762;2023-02-13T01:59:57;101495.81;;;21.94;58.78
35704;BME280;21820;51.112;13.762;2023-02-13T02:02:24;101489.06;;;21.90;57.83
35704;BME280;21820;51.112;13.762;2023-02-13T02:04:50;101472.16;;;21.81;57.75
35704;BME280;21820;51.112;13.762;2023-02-13T02:07:20;101489.25;;;21.87;58.53
35704;BME280;21820;51.112;13.762;2023-02-13T02:09:48;101488.44;;;21.86;58.78
35704;BME280;21820;51.112;13.762;2023-02-13T02:14:49;101490.31;;;21.84;57.80
35704;BME280;21820;51.112;13.762;2023-02-13T02:17:16;101483.38;;;21.83;58.30
35704;BME280;21820;51.112;13.762;2023-02-13T02:20:05;101478.78;;;21.87;58.36
35704;BME280;21820;51.112;13.762;2023-02-13T02:23:46;101481.50;;;21.85;58.54
35704;BME280;21820;51.112;13.762;2023-02-13T02:34:52;101489.47;;;21.84;58.13
35704;BME280;21820;51.112;13.762;2023-02-13T02:42:42;101482.56;;;21.83;58.57
35704;BME280;21820;51.112;13.762;2023-02-13T02:48:09;101488.25;;;21.89;58.57
35704;BME280;21820;51.112;13.762;2023-02-13T02:58:42;101490.31;;;21.84;58.39
35704;BME280;21820;51.112;13.762;2023-02-13T03:01:29;101498.41;;;21.80;57.82
35704;BME280;21820;51.112;13.762;2023-02-13T03:04:28;101487.69;;;21.84;58.33
35704;BME280;21820;51.112;13.762;2023-02-13T03:07:16;101498.06;;;21.86;58.15
35704;BME280;21820;51.112;13.762;2023-02-13T03:10:38;101490.22;;;21.86;58.36
35704;BME280;21820;51.112;13.762;2023-02-13T03:13:44;101489.47;;;21.84;58.31
35704;BME280;21820;51.112;13.762;2023-02-13T03:16:16;101500.97;;;21.81;58.73
35704;BME280;21820;51.112;13.762;2023-02-13T03:19:02;101492.16;;;21.82;58.39
35704;BME280;21820;51.112;13.762;2023-02-13T03:21:58;101505.34;;;21.81;58.94
35704;BME280;21820;51.112;13.762;2023-02-13T03:33:50;101498.16;;;21.84;58.80
35704;BME280;21820;51.112;13.762;2023-02-13T03:36:31;101492.91;;;21.84;58.32
35704;BME280;21820;51.112;13.762;2023-02-13T03:39:23;101499.94;;;21.84;58.77
35704;BME280;21820;51.112;13.762;2023-02-13T03:41:54;101496.81;;;21.91;58.62
35704;BME280;21820;51.112;13.762;2023-02-13T03:45:16;101492.81;;;21.86;58.76
35704;BME280;21820;51.112;13.762;2023-02-13T03:47:53;101496.38;;;21.85;58.63
35704;BME280;21820;51.112;13.762;2023-02-13T03:50:20;101497.31;;;21.84;57.97
35704;BME280;21820;51.112;13.762;2023-02-13T03:55:30;101504.16;;;21.86;58.05
35704;BME280;21820;51.112;13.762;2023-02-13T04:01:11;101497.88;;;21.89;58.67
35704;BME280;21820;51.112;13.762;2023-02-13T04:03:41;101491.97;;;21.85;58.63
35704;BME280;21820;51.112;13.762;2023-02-13T04:06:12;101499.81;;;21.85;58.20
35704;BME280;21820;51.112;13.762;2023-02-13T04:08:39;101499.06;;;21.83;58.13
35704;BME280;21820;51.112;13.762;2023-02-13T04:11:20;101480.19;;;21.78;58.43
35704;BME280;21820;51.112;13.762;2023-02-13T04:13:59;101493.84;;;21.83;58.52
35704;BME280;21820;51.112;13.762;2023-02-13T04:16:42;101501.34;;;21.89;58.50
35704;BME280;21820;51.112;13.762;2023-02-13T04:19:09;101487.31;;;21.76;57.87
35704;BME280;21820;51.112;13.762;2023-02-13T04:21:37;101505.44;;;21.93;58.54
35704;BME280;21820;51.112;13.762;2023-02-13T04:24:02;101491.41;;;21.80;58.22
35704;BME280;21820;51.112;13.762;2023-02-13T04:26:37;101499.63;;;21.88;58.46
35704;BME280;21820;51.112;13.762;2023-02-13T04:29:03;101494.59;;;21.85;58.52
35704;BME280;21820;51.112;13.762;2023-02-13T04:31:29;101498.91;;;21.86;57.84
35704;BME280;21820;51.112;13.762;2023-02-13T04:33:54;101501.59;;;21.85;57.86
35704;BME280;21820;51.112;13.762;2023-02-13T04:36:20;101497.38;;;21.54;57.48
35704;BME280;21820;51.112;13.762;2023-02-13T04:38:45;101498.13;;;21.42;56.84
35704;BME280;21820;51.112;13.762;2023-02-13T04:41:11;101472.81;;;21.43;56.07
35704;BME280;21820;51.112;13.762;2023-02-13T04:43:36;101491.31;;;21.68;55.17
35704;BME280;21820;51.112;13.762;2023-02-13T04:46:02;101493.84;;;21.83;55.00
35704;BME280;21820;51.112;13.762;2023-02-13T04:48:27;101496.47;;;21.98;54.31
35704;BME280;21820;51.112;13.762;2023-02-13T04:50:53;101476.97;;;22.02;54.77
35704;BME280;21820;51.112;13.762;2023-02-13T04:53:18;101489.84;;;22.19;53.80
35704;BME280;21820;51.112;13.762;2023-02-13T04:55:44;101485.91;;;22.26;53.99
35704;BME280;21820;51.112;13.762;2023-02-13T04:58:09;101497.09;;;22.42;53.70
35704;BME280;21820;51.112;13.762;2023-02-13T05:00:34;101476.13;;;22.42;52.89
35704;BME280;21820;51.112;13.762;2023-02-13T05:03:08;101491.25;;;22.51;53.67
35704;BME280;21820;51.112;13.762;2023-02-13T05:05:34;101492.16;;;22.64;52.62
35704;BME280;21820;51.112;13.762;2023-02-13T05:08:00;101487.47;;;22.69;53.12
35704;BME280;21820;51.112;13.762;2023-02-13T05:10:26;101490.31;;;22.78;52.76
35704;BME280;21820;51.112;13.762;2023-02-13T05:12:51;101495.78;;;22.88;52.11
35704;BME280;21820;51.112;13.762;2023-02-13T05:15:17;101486.78;;;22.92;52.59
35704;BME280;21820;51.112;13.762;2023-02-13T05:17:43;101492.56;;;22.97;51.90
35704;BME280;21820;51.112;13.762;2023-02-13T05:20:09;101496.66;;;23.01;52.41
35704;BME280;21820;51.112;13.762;2023-02-13T05:22:35;101496.44;;;23.04;51.93
35704;BME280;21820;51.112;13.762;2023-02-13T05:25:19;101494.88;;;23.14;52.08
35704;BME280;21820;51.112;13.762;2023-02-13T05:27:44;101485.22;;;23.14;51.15
35704;BME280;21820;51.112;13.762;2023-02-13T05:30:10;101502.81;;;23.27;51.44
35704;BME280;21820;51.112;13.762;2023-02-13T05:32:36;101497.03;;;23.34;50.96
35704;BME280;21820;51.112;13.762;2023-02-13T05:35:02;101492.72;;;23.33;51.29
35704;BME280;21820;51.112;13.762;2023-02-13T05:37:28;101496.28;;;23.32;51.00
35704;BME280;21820;51.112;13.762;2023-02-13T05:39:53;101474.63;;;23.16;51.20
35704;BME280;21820;51.112;13.762;2023-02-13T05:42:18;101489.34;;;23.18;51.77
35704;BME280;21820;51.112;13.762;2023-02-13T05:44:44;101495.31;;;23.08;51.65
35704;BME280;21820;51.112;13.762;2023-02-13T05:47:09;101489.09;;;22.96;52.60
35704;BME280;21820;51.112;13.762;2023-02-13T05:49:34;101489.09;;;22.84;52.32
35704;BME280;21820;51.112;13.762;2023-02-13T05:51:59;101495.13;;;22.72;53.07
35704;BME280;21820;51.112;13.762;2023-02-13T05:54:25;101498.16;;;22.66;52.95
35704;BME280;21820;51.112;13.762;2023-02-13T05:56:50;101495.28;;;22.56;53.69
35704;BME280;21820;51.112;13.762;2023-02-13T05:59:16;101494.00;;;22.49;54.19
35704;BME280;21820;51.112;13.762;2023-02-13T06:01:41;101486.81;;;22.39;54.25
35704;BME280;21820;51.112;13.762;2023-02-13T06:04:06;101495.53;;;22.39;53.93
35704;BME280;21820;51.112;13.762;2023-02-13T06:06:32;101490.94;;;22.29;54.28
35704;BME280;21820;51.112;13.762;2023-02-13T06:08:57;101492.63;;;22.30;54.33
35704;BME280;21820;51.112;13.762;2023-02-13T06:11:23;101500.31;;;22.33;54.22
35704;BME280;21820;51.112;13.762;2023-02-13T06:13:48;101492.25;;;22.36;54.07
35704;BME280;21820;51.112;13.762;2023-02-13T06:16:13;101501.31;;;22.44;54.24
35704;BME280;21820;51.112;13.762;2023-02-13T06:18:39;101504.47;;;22.49;54.11
35704;BME280;21820;51.112;13.762;2023-02-13T06:21:05;101509.97;;;22.59;53.51
35704;BME280;21820;51.112;13.762;2023-02-13T06:23:31;101500.97;;;22.63;53.68
35704;BME280;21820;51.112;13.762;2023-02-13T06:26:03;101510.25;;;22.81;53.40
35704;BME280;21820;51.112;13.762;2023-02-13T06:28:29;101511.72;;;22.85;52.39
35704;BME280;21820;51.112;13.762;2023-02-13T06:30:55;101517.72;;;22.87;52.79
35704;BME280;21820;51.112;13.762;2023-02-13T06:33:20;101517.94;;;22.84;53.11
35704;BME280;21820;51.112;13.762;2023-02-13T06:35:45;101506.81;;;22.80;52.66
35704;BME280;21820;51.112;13.762;2023-02-13T06:38:11;101526.38;;;22.75;52.94
35704;BME280;21820;51.112;13.762;2023-02-13T06:40:36;101521.56;;;22.69;53.35
35704;BME280;21820;51.112;13.762;2023-02-13T06:43:01;101518.41;;;22.64;53.34
35704;BME280;21820;51.112;13.762;2023-02-13T06:45:27;101520.00;;;22.52;53.56
35704;BME280;21820;51.112;13.762;2023-02-13T06:47:52;101525.25;;;22.52;54.07
35704;BME280;21820;51.112;13.762;2023-02-13T06:50:18;101523.84;;;22.47;53.90
35704;BME280;21820;51.112;13.762;2023-02-13T06:52:48;101521.63;;;22.41;53.68
35704;BME280;21820;51.112;13.762;2023-02-13T06:55:14;101521.06;;;22.36;54.24
35704;BME280;21820;51.112;13.762;2023-02-13T06:57:41;101517.72;;;22.20;54.17
35704;BME280;21820;51.112;13.762;2023-02-13T07:00:07;101528.59;;;22.28;54.62
35704;BME280;21820;51.112;13.762;2023-02-13T07:02:33;101522.78;;;22.23;54.44
35704;BME280;21820;51.112;13.762;2023-02-13T07:04:58;101539.41;;;22.36;54.30
35704;BME280;21820;51.112;13.762;2023-02-13T07:07:23;101540.72;;;22.43;53.94
35704;BME280;21820;51.112;13.762;2023-02-13T07:09:49;101538.53;;;22.49;54.29
35704;BME280;21820;51.112;13.762;2023-02-13T07:12:14;101536.19;;;22.59;53.68
35704;BME280;21820;51.112;13.762;2023-02-13T07:14:40;101538.53;;;22.76;52.90
35704;BME280;21820;51.112;13.762;2023-02-13T07:17:05;101541.56;;;23.48;51.44
35704;BME280;21820;51.112;13.762;2023-02-13T07:19:31;101540.41;;;23.65;50.89
35704;BME280;21820;51.112;13.762;2023-02-13T07:21:56;101548.41;;;23.63;51.00
35704;BME280;21820;51.112;13.762;2023-02-13T07:24:22;101544.19;;;23.61;51.08
35704;BME280;21820;51.112;13.762;2023-02-13T07:26:47;101547.13;;;23.56;51.46
35704;BME280;21820;51.112;13.762;2023-02-13T07:29:13;101539.97;;;23.46;51.78
35704;BME280;21820;51.112;13.762;2023-02-13T07:31:38;101549.84;;;23.42;51.66
35704;BME280;21820;51.112;13.762;2023-02-13T07:34:04;101549.53;;;23.34;51.74
35704;BME280;21820;51.112;13.762;2023-02-13T07:36:30;101549.59;;;23.20;52.21
35704;BME280;21820;51.112;13.762;2023-02-13T07:38:55;101552.91;;;23.09;52.97
35704;BME280;21820;51.112;13.762;2023-02-13T07:41:20;101548.47;;;22.97;53.21
35704;BME280;21820;51.112;13.762;2023-02-13T07:43:50;101534.78;;;22.80;53.16
35704;BME280;21820;51.112;13.762;2023-02-13T07:46:15;101548.00;;;22.78;53.44
35704;BME280;21820;51.112;13.762;2023-02-13T07:48:40;101528.69;;;22.67;53.80
35704;BME280;21820;51.112;13.762;2023-02-13T07:51:06;101550.22;;;22.84;53.37
35704;BME280;21820;51.112;13.762;2023-02-13T07:53:31;101556.06;;;23.02;53.49
35704;BME280;21820;51.112;13.762;2023-02-13T07:55:57;101548.84;;;23.18;52.98
35704;BME280;21820;51.112;13.762;2023-02-13T07:58:22;101549.94;;;23.41;51.98
35704;BME280;21820;51.112;13.762;2023-02-13T08:00:48;101550.88;;;23.52;51.63
35704;BME280;21820;51.112;13.762;2023-02-13T08:03:13;101545.94;;;23.60;51.87
35704;BME280;21820;51.112;13.762;2023-02-13T08:05:39;101550.25;;;23.86;51.16
35704;BME280;21820;51.112;13.762;2023-02-13T08:08:06;101557.38;;;23.97;50.46
35704;BME280;21820;51.112;13.762;2023-02-13T08:10:31;101554.97;;;23.94;51.01
35704;BME280;21820;51.112;13.762;2023-02-13T08:13:16;101558.84;;;23.88;51.28
35704;BME280;21820;51.112;13.762;2023-02-13T08:15:42;101542.94;;;23.66;50.82
35704;BME280;21820;51.112;13.762;2023-02-13T08:18:11;101563.38;;;23.36;46.74
35704;BME280;21820;51.112;13.762;2023-02-13T08:20:36;101564.81;;;23.15;47.40
35704;BME280;21820;51.112;13.762;2023-02-13T08:23:03;101562.66;;;22.95;47.67
35704;BME280;21820;51.112;13.762;2023-02-13T08:25:29;101560.44;;;22.89;49.21
35704;BME280;21820;51.112;13.762;2023-02-13T08:27:54;101563.06;;;22.89;49.61
35704;BME280;21820;51.112;13.762;2023-02-13T08:30:20;101566.81;;;22.85;50.64
35704;BME280;21820;51.112;13.762;2023-02-13T08:32:45;101561.22;;;22.77;51.22
35704;BME280;21820;51.112;13.762;2023-02-13T08:35:11;101562.34;;;22.73;51.50
35704;BME280;21820;51.112;13.762;2023-02-13T08:37:36;101558.19;;;22.56;50.46
35704;BME280;21820;51.112;13.762;2023-02-13T08:40:01;101566.53;;;22.49;50.45
35704;BME280;21820;51.112;13.762;2023-02-13T08:42:27;101559.94;;;22.70;49.63
35704;BME280;21820;51.112;13.762;2023-02-13T08:44:52;101554.47;;;22.73;48.77
35704;BME280;21820;51.112;13.762;2023-02-13T08:47:18;101566.84;;;22.97;48.01
35704;BME280;21820;51.112;13.762;2023-02-13T08:49:43;101554.56;;;22.98;46.94
35704;BME280;21820;51.112;13.762;2023-02-13T08:52:08;101556.41;;;23.22;47.08
35704;BME280;21820;51.112;13.762;2023-02-13T08:54:34;101564.72;;;23.29;46.50
35704;BME280;21820;51.112;13.762;2023-02-13T08:57:00;101569.88;;;23.31;45.89
35704;BME280;21820;51.112;13.762;2023-02-13T08:59:26;101563.91;;;23.29;46.69
35704;BME280;21820;51.112;13.762;2023-02-13T09:01:51;101568.50;;;23.25;46.76
35704;BME280;21820;51.112;13.762;2023-02-13T09:04:16;101561.63;;;23.10;46.61
35704;BME280;21820;51.112;13.762;2023-02-13T09:06:44;101580.38;;;23.04;47.44
35704;BME280;21820;51.112;13.762;2023-02-13T09:09:10;101576.16;;;22.89;47.38
35704;BME280;21820;51.112;13.762;2023-02-13T09:11:35;101578.63;;;22.78;47.28
35704;BME280;21820;51.112;13.762;2023-02-13T09:14:01;101577.53;;;22.68;48.23
35704;BME280;21820;51.112;13.762;2023-02-13T09:16:26;101580.00;;;22.57;48.44
35704;BME280;21820;51.112;13.762;2023-02-13T09:18:52;101561.69;;;22.43;48.66
35704;BME280;21820;51.112;13.762;2023-02-13T09:21:19;101562.25;;;22.34;48.93
35704;BME280;21820;51.112;13.762;2023-02-13T09:23:46;101583.22;;;22.34;48.66
35704;BME280;21820;51.112;13.762;2023-02-13T09:26:14;101586.22;;;22.28;49.64
35704;BME280;21820;51.112;13.762;2023-02-13T09:28:40;101578.94;;;22.33;49.62
35704;BME280;21820;51.112;13.762;2023-02-13T09:31:10;101585.78;;;22.48;48.68
35704;BME280;21820;51.112;13.762;2023-02-13T09:33:36;101571.56;;;22.52;49.01
35704;BME280;21820;51.112;13.762;2023-02-13T09:36:10;101577.88;;;22.76;48.12
35704;BME280;21820;51.112;13.762;2023-02-13T09:38:36;101574.47;;;22.88;48.28
35704;BME280;21820;51.112;13.762;2023-02-13T09:41:05;101585.03;;;23.00;48.18
35704;BME280;21820;51.112;13.762;2023-02-13T09:43:51;101563.31;;;23.11;47.46
35704;BME280;21820;51.112;13.762;2023-02-13T09:46:24;101583.59;;;23.21;47.54
35704;BME280;21820;51.112;13.762;2023-02-13T09:48:56;101580.75;;;23.12;47.43
35704;BME280;21820;51.112;13.762;2023-02-13T09:51:24;101585.63;;;23.04;47.98
35704;BME280;21820;51.112;13.762;2023-02-13T09:56:26;101595.19;;;23.32;47.74
35704;BME280;21820;51.112;13.762;2023-02-13T09:59:02;101588.63;;;23.24;48.00
35704;BME280;21820;51.112;13.762;2023-02-13T10:01:40;101598.16;;;23.13;49.35
35704;BME280;21820;51.112;13.762;2023-02-13T10:06:40;101602.00;;;22.95;49.95
35704;BME280;21820;51.112;13.762;2023-02-13T10:09:21;101600.81;;;22.86;50.29
35704;BME280;21820;51.112;13.762;2023-02-13T10:12:03;101597.75;;;22.80;50.67
35704;BME280;21820;51.112;13.762;2023-02-13T10:17:10;101574.56;;;22.60;51.10
35704;BME280;21820;51.112;13.762;2023-02-13T10:22:14;101599.16;;;22.98;50.85
35704;BME280;21820;51.112;13.762;2023-02-13T10:25:07;101597.22;;;23.14;50.16
35704;BME280;21820;51.112;13.762;2023-02-13T10:27:43;101590.16;;;23.41;49.46
35704;BME280;21820;51.112;13.762;2023-02-13T10:30:16;101591.03;;;23.54;49.43
35704;BME280;21820;51.112;13.762;2023-02-13T10:36:11;101575.88;;;23.70;49.10
35704;BME280;21820;51.112;13.762;2023-02-13T10:49:45;101563.31;;;23.11;49.85
35704;BME280;21820;51.112;13.762;2023-02-13T10:55:19;101557.53;;;22.79;49.01
35704;BME280;21820;51.112;13.762;2023-02-13T11:03:22;101549.50;;;22.42;48.69
35704;BME280;21820;51.112;13.762;2023-02-13T11:05:48;101541.69;;;22.28;49.73
35704;BME280;21820;51.112;13.762;2023-02-13T11:08:25;101544.78;;;22.20;49.89
35704;BME280;21820;51.112;13.762;2023-02-13T11:10:51;101552.09;;;22.15;49.40
35704;BME280;21820;51.112;13.762;2023-02-13T11:13:24;101548.44;;;22.18;49.13
35704;BME280;21820;51.112;13.762;2023-02-13T11:16:04;101545.13;;;22.28;48.55
35704;BME280;21820;51.112;13.762;2023-02-13T11:18:33;101530.81;;;22.34;48.51
35704;BME280;21820;51.112;13.762;2023-02-13T11:21:05;101531.59;;;22.62;47.84
35704;BME280;21820;51.112;13.762;2023-02-13T11:28:31;101545.88;;;23.37;48.00
35704;BME280;21820;51.112;13.762;2023-02-13T11:31:31;101536.19;;;23.37;48.05
35704;BME280;21820;51.112;13.762;2023-02-13T11:33:58;101537.56;;;23.43;48.22
35704;BME280;21820;51.112;13.762;2023-02-13T11:36:29;101532.03;;;23.20;49.42
35704;BME280;21820;51.112;13.762;2023-02-13T11:39:06;101531.28;;;23.06;49.57
35704;BME280;21820;51.112;13.762;2023-02-13T11:41:42;101511.53;;;22.88;49.93
35704;BME280;21820;51.112;13.762;2023-02-13T11:44:21;101533.78;;;22.95;49.58
35704;BME280;21820;51.112;13.762;2023-02-13T11:46:50;101511.84;;;22.57;50.72
35704;BME280;21820;51.112;13.762;2023-02-13T11:51:48;101527.22;;;22.35;49.35
35704;BME280;21820;51.112;13.762;2023-02-13T11:56:53;101518.13;;;22.14;50.42
35704;BME280;21820;51.112;13.762;2023-02-13T11:59:24;101526.28;;;22.09;50.32
35704;BME280;21820;51.112;13.762;2023-02-13T12:02:07;101519.72;;;22.02;50.95
35704;BME280;21820;51.112;13.762;2023-02-13T12:04:36;101516.56;;;21.97;50.28
35704;BME280;21820;51.112;13.762;2023-02-13T15:51:41;101430.75;;;22.15;50.60
35704;BME280;21820;51.112;13.762;2023-02-13T15:54:31;101417.78;;;22.26;50.51
35704;BME280;21820;51.112;13.762;2023-02-13T15:57:10;101434.72;;;22.47;49.87
35704;BME280;21820;51.112;13.762;2023-02-13T15:59:37;101438.66;;;22.54;49.57
35704;BME280;21820;51.112;13.762;2023-02-13T16:02:05;101428.81;;;22.57;49.26
35704;BME280;21820;51.112;13.762;2023-02-13T16:04:35;101416.84;;;22.53;49.68
35704;BME280;21820;51.112;13.762;2023-02-13T16:07:01;101419.84;;;22.47;49.46
35704;BME280;21820;51.112;13.762;2023-02-13T16:09:34;101420.34;;;22.40;50.04
35704;BME280;21820;51.112;13.762;2023-02-13T16:14:28;101429.84;;;22.28;49.90
35704;BME280;21820;51.112;13.762;2023-02-13T16:17:01;101433.28;;;22.16;50.18
35704;BME280;21820;51.112;13.762;2023-02-13T16:19:28;101421.97;;;22.02;51.05
35704;BME280;21820;51.112;13.762;2023-02-13T16:21:57;101419.97;;;21.92;51.23
35704;BME280;21820;51.112;13.762;2023-02-13T16:24:25;101432.69;;;21.84;51.64
35704;BME280;21820;51.112;13.762;2023-02-13T16:26:51;101438.47;;;21.75;51.82
35704;BME280;21820;51.112;13.762;2023-02-13T16:29:20;101433.63;;;21.69;52.14
35704;BME280;21820;51.112;13.762;2023-02-13T16:31:48;101423.91;;;21.57;52.06
35704;BME280;21820;51.112;13.762;2023-02-13T16:34:34;101428.78;;;21.63;52.08
35704;BME280;21820;51.112;13.762;2023-02-13T16:37:00;101429.78;;;21.75;51.14
35704;BME280;21820;51.112;13.762;2023-02-13T16:39:31;101428.72;;;21.91;51.33
35704;BME280;21820;51.112;13.762;2023-02-13T16:41:58;101437.97;;;22.11;50.94
35704;BME280;21820;51.112;13.762;2023-02-13T16:44:25;101435.47;;;22.22;50.45
35704;BME280;21820;51.112;13.762;2023-02-13T16:49:22;101426.47;;;22.53;50.20
35704;BME280;21820;51.112;13.762;2023-02-13T16:54:27;101429.16;;;22.65;49.56
35704;BME280;21820;51.112;13.762;2023-02-13T17:02:20;101419.16;;;22.58;49.76
35704;BME280;21820;51.112;13.762;2023-02-13T17:04:46;101423.84;;;22.53;49.86
35704;BME280;21820;51.112;13.762;2023-02-13T17:07:18;101418.91;;;22.48;50.23
35704;BME280;21820;51.112;13.762;2023-02-13T17:09:51;101422.25;;;22.38;50.22
35704;BME280;21820;51.112;13.762;2023-02-13T17:12:17;101425.13;;;22.33;50.92
35704;BME280;21820;51.112;13.762;2023-02-13T17:14:43;101420.34;;;22.40;50.64
35704;BME280;21820;51.112;13.762;2023-02-13T17:17:15;101422.56;;;22.46;51.04
35704;BME280;21820;51.112;13.762;2023-02-13T17:19:41;101421.38;;;22.37;51.27
35704;BME280;21820;51.112;13.762;2023-02-13T17:22:07;101424.31;;;22.33;51.49
35704;BME280;21820;51.112;13.762;2023-02-13T17:24:35;101423.13;;;22.24;50.91
35704;BME280;21820;51.112;13.762;2023-02-13T17:27:00;101420.78;;;22.20;51.59
35704;BME280;21820;51.112;13.762;2023-02-13T17:29:25;101408.84;;;22.16;51.56
35704;BME280;21820;51.112;13.762;2023-02-13T17:31:53;101397.47;;;22.03;52.34
35704;BME280;21820;51.112;13.762;2023-02-13T17:34:19;101413.75;;;22.08;51.78
35704;BME280;21820;51.112;13.762;2023-02-13T17:36:45;101415.63;;;22.06;51.99
35704;BME280;21820;51.112;13.762;2023-02-13T17:39:10;101427.97;;;22.04;52.76
35704;BME280;21820;51.112;13.762;2023-02-13T17:41:35;101423.31;;;21.94;52.18
35704;BME280;21820;51.112;13.762;2023-02-13T17:44:02;101425.25;;;22.05;51.72
35704;BME280;21820;51.112;13.762;2023-02-13T17:46:28;101422.72;;;22.04;51.66
35704;BME280;21820;51.112;13.762;2023-02-13T17:48:53;101417.81;;;22.12;51.87
35704;BME280;21820;51.112;13.762;2023-02-13T17:51:18;101404.25;;;22.19;51.43
35704;BME280;21820;51.112;13.762;2023-02-13T17:53:44;101393.47;;;22.24;51.06
35704;BME280;21820;51.112;13.762;2023-02-13T17:56:10;101403.69;;;22.41;50.92
35704;BME280;21820;51.112;13.762;2023-02-13T17:58:36;101408.31;;;22.50;50.94
35704;BME280;21820;51.112;13.762;2023-02-13T18:01:01;101411.50;;;22.55;50.89
35704;BME280;21820;51.112;13.762;2023-02-13T18:03:27;101413.19;;;22.56;49.99
35704;BME280;21820;51.112;13.762;2023-02-13T18:05:52;101399.53;;;22.51;45.14
35704;BME280;21820;51.112;13.762;2023-02-13T18:08:17;101416.16;;;22.50;45.71
35704;BME280;21820;51.112;13.762;2023-02-13T18:10:44;101423.69;;;22.42;46.88
35704;BME280;21820;51.112;13.762;2023-02-13T18:13:09;101437.97;;;22.38;47.60
35704;BME280;21820;51.112;13.762;2023-02-13T18:15:39;101430.47;;;22.32;48.50